createdAt,value
2024-04-21T00:01:31.968Z,102193.84
2024-04-21T00:06:34.044Z,102172.47
2024-04-21T00:11:36.114Z,102161.97
2024-04-21T00:16:38.502Z,102164.22
2024-04-21T00:21:40.558Z,102170.53
2024-04-21T00:26:42.644Z,102174.47
2024-04-21T00:31:44.615Z,102139.78
2024-04-21T00:36:46.623Z,102126.31
2024-04-21T00:41:48.657Z,102134.47
2024-04-21T00:46:51.351Z,102127.88
2024-04-21T00:51:53.936Z,102119.88
2024-04-21T00:56:56.305Z,102118.41
2024-04-21T01:01:58.696Z,102136.59
2024-04-21T01:07:00.867Z,102151.53
2024-04-21T01:12:03.015Z,102142.78
2024-04-21T01:17:05.340Z,102116.19
2024-04-21T01:22:07.648Z,102087.06
2024-04-21T01:27:09.645Z,102075.00
2024-04-21T01:32:24.210Z,102067.47
2024-04-21T01:37:26.247Z,102057.09
2024-04-21T01:42:28.286Z,102058.84
2024-04-21T01:47:30.306Z,102038.19
2024-04-21T01:52:32.350Z,102043.59
2024-04-21T01:57:35.451Z,102028.03
2024-04-21T02:02:37.588Z,102012.38
2024-04-21T02:07:39.643Z,102004.66
2024-04-21T02:12:41.642Z,102002.84
2024-04-21T02:17:43.805Z,101997.44
2024-04-21T02:22:45.839Z,101983.34
2024-04-21T02:27:47.891Z,101980.66
2024-04-21T02:32:50.045Z,101969.41
2024-04-21T02:37:52.067Z,101958.59
2024-04-21T02:42:54.067Z,101952.50
2024-04-21T02:47:56.209Z,101948.81
2024-04-21T02:52:58.258Z,101938.25
2024-04-21T02:58:00.611Z,101931.94
2024-04-21T03:03:02.637Z,101942.31
2024-04-21T03:08:05.055Z,101933.44
2024-04-21T03:13:07.084Z,101941.09
2024-04-21T03:18:09.165Z,101936.81
2024-04-21T03:23:11.305Z,101938.75
2024-04-21T03:28:13.388Z,101924.81
2024-04-21T03:33:15.535Z,101919.56
2024-04-21T03:38:17.572Z,101928.16
2024-04-21T03:43:19.658Z,101921.09
2024-04-21T03:48:22.705Z,101914.19
2024-04-21T03:53:25.589Z,101910.75
2024-04-21T03:58:28.029Z,101905.47
2024-04-21T04:03:30.651Z,101910.59
2024-04-21T04:08:33.697Z,101908.16
2024-04-21T04:13:35.908Z,101912.47
2024-04-21T04:18:37.981Z,101916.03
2024-04-21T04:23:40.062Z,101919.53
2024-04-21T04:28:42.109Z,101922.22
2024-04-21T04:33:44.170Z,101926.31
2024-04-21T04:38:46.229Z,101927.66
2024-04-21T04:43:48.190Z,101943.28
2024-04-21T04:48:50.258Z,101949.34
2024-04-21T04:53:52.224Z,101960.72
2024-04-21T04:58:54.596Z,101967.47
2024-04-21T05:03:56.648Z,101969.91
2024-04-21T05:08:58.680Z,101975.03
2024-04-21T05:14:00.770Z,101985.47
2024-04-21T05:19:02.863Z,101994.97
2024-04-21T05:24:05.167Z,101998.44
2024-04-21T05:29:07.294Z,102014.66
2024-04-21T05:34:09.313Z,102045.00
2024-04-21T05:39:12.464Z,102045.59
2024-04-21T05:44:14.564Z,102056.19
2024-04-21T05:49:16.614Z,102063.13
2024-04-21T05:54:18.766Z,102091.69
2024-04-21T05:59:20.975Z,102093.16
2024-04-21T06:04:23.047Z,102100.66
2024-04-21T06:09:25.205Z,102114.44
2024-04-21T06:14:27.295Z,102122.97
2024-04-21T06:19:30.808Z,102138.34
2024-04-21T06:24:32.928Z,102143.03
2024-04-21T06:29:34.950Z,102160.09
2024-04-21T06:34:37.019Z,102170.59
2024-04-21T06:39:38.993Z,102175.13
2024-04-21T06:44:41.061Z,102186.13
2024-04-21T06:49:43.096Z,102201.84
2024-04-21T06:54:45.056Z,102221.91
2024-04-21T06:59:47.203Z,102226.00
2024-04-21T07:04:49.599Z,102238.34
2024-04-21T07:09:51.629Z,102249.63
2024-04-21T07:14:54.474Z,102268.31
2024-04-21T07:19:56.449Z,102275.63
2024-04-21T07:25:03.001Z,102281.66
2024-04-21T07:30:09.678Z,102291.94
2024-04-21T07:35:11.674Z,102298.28
2024-04-21T07:40:15.632Z,102294.66
2024-04-21T07:45:18.052Z,102303.28
2024-04-21T07:50:20.072Z,102319.00
2024-04-21T07:55:22.097Z,102323.81
2024-04-21T08:00:24.066Z,102326.78
2024-04-21T08:05:26.040Z,102336.84
2024-04-21T08:10:28.117Z,102344.81
2024-04-21T08:15:32.821Z,102353.09
2024-04-21T08:20:38.646Z,102363.28
2024-04-21T08:25:41.129Z,102356.06
2024-04-21T08:30:45.250Z,102361.50
2024-04-21T08:35:59.608Z,102375.25
2024-04-21T08:41:12.836Z,102375.00
2024-04-21T08:46:14.982Z,102384.47
2024-04-21T08:51:17.038Z,102394.47
2024-04-21T08:56:23.040Z,102394.00
2024-04-21T09:01:28.312Z,102394.69
2024-04-21T09:06:31.851Z,102391.72
2024-04-21T09:11:35.358Z,102402.47
2024-04-21T09:16:37.447Z,102411.75
2024-04-21T09:21:40.468Z,102415.66
2024-04-21T09:26:43.903Z,102423.09
2024-04-21T09:31:46.451Z,102414.41
2024-04-21T09:36:49.286Z,102417.25
2024-04-21T09:41:54.106Z,102415.97
2024-04-21T09:46:57.778Z,102421.44
2024-04-21T09:52:02.392Z,102420.44
2024-04-21T09:57:17.605Z,102426.72
2024-04-21T10:02:24.596Z,102433.00
2024-04-21T10:07:28.078Z,102427.56
2024-04-21T10:12:31.252Z,102432.47
2024-04-21T10:17:34.417Z,102433.56
2024-04-21T10:22:38.127Z,102434.81
2024-04-21T10:27:40.145Z,102430.16
2024-04-21T10:32:42.282Z,102438.34
2024-04-21T10:37:46.464Z,102435.69
2024-04-21T10:42:55.366Z,102438.88
2024-04-21T10:47:57.540Z,102438.88
2024-04-21T10:52:59.688Z,102442.41
2024-04-21T10:58:03.663Z,102439.00
2024-04-21T11:03:07.223Z,102438.19
2024-04-21T11:08:09.825Z,102445.88
2024-04-21T11:13:11.835Z,102443.84
2024-04-21T11:18:14.929Z,102443.66
2024-04-21T11:23:18.182Z,102443.88
2024-04-21T11:28:20.497Z,102443.22
2024-04-21T11:33:22.672Z,102451.50
2024-04-21T11:38:25.376Z,102452.53
2024-04-21T11:43:29.074Z,102450.41
2024-04-21T11:48:36.057Z,102461.09
2024-04-21T11:53:38.172Z,102458.00
2024-04-21T11:58:40.169Z,102463.84
2024-04-21T12:03:43.948Z,102475.28
2024-04-21T12:08:49.792Z,102458.75
2024-04-21T12:14:07.845Z,102458.19
2024-04-21T12:19:11.132Z,102452.13
2024-04-21T12:24:16.852Z,102442.28
2024-04-21T12:29:19.218Z,102446.09
2024-04-21T12:34:22.979Z,102451.31
2024-04-21T12:39:28.585Z,102450.22
2024-04-21T12:44:32.787Z,102447.66
2024-04-21T12:49:36.229Z,102446.72
2024-04-21T12:54:38.421Z,102451.88
2024-04-21T12:59:44.931Z,102450.00
2024-04-21T13:04:50.630Z,102449.88
2024-04-21T13:09:54.295Z,102436.63
2024-04-21T13:14:56.565Z,102426.53
2024-04-21T13:19:58.870Z,102439.09
2024-04-21T13:25:02.223Z,102446.19
2024-04-21T13:30:06.608Z,102450.91
2024-04-21T13:35:11.614Z,102441.25
2024-04-21T13:40:14.507Z,102434.22
2024-04-21T13:45:16.915Z,102420.75
2024-04-21T13:50:21.631Z,102432.72
2024-04-21T13:55:25.617Z,102444.56
2024-04-21T14:00:28.571Z,102446.47
2024-04-21T14:05:33.256Z,102449.28
2024-04-21T14:10:36.358Z,102446.50
2024-04-21T14:15:38.577Z,102439.69
2024-04-21T14:20:42.396Z,102433.34
2024-04-21T14:25:48.282Z,102430.75
2024-04-21T14:30:50.540Z,102449.75
2024-04-21T14:35:56.199Z,102442.41
2024-04-21T14:40:58.587Z,102464.59
2024-04-21T14:46:00.723Z,102494.53
2024-04-21T14:51:06.326Z,102508.63
2024-04-21T14:56:15.080Z,102513.03
2024-04-21T15:01:20.350Z,102535.06
2024-04-21T15:06:22.823Z,102515.25
2024-04-21T15:11:26.515Z,102498.81
2024-04-21T15:16:32.540Z,102489.03
2024-04-21T15:21:36.297Z,102470.25
2024-04-21T15:26:39.840Z,102470.59
2024-04-21T15:31:42.253Z,102469.47
2024-04-21T15:36:45.677Z,102474.91
2024-04-21T15:41:48.079Z,102483.06
2024-04-21T15:46:50.403Z,102479.47
2024-04-21T15:51:52.586Z,102470.50
2024-04-21T15:56:54.558Z,102469.84
2024-04-21T16:01:56.630Z,102465.63
2024-04-21T16:06:58.749Z,102480.38
2024-04-21T16:12:00.774Z,102475.91
2024-04-21T16:17:02.848Z,102483.06
2024-04-21T16:22:05.080Z,102490.66
2024-04-21T16:27:07.214Z,102488.41
2024-04-21T16:32:09.217Z,102491.53
2024-04-21T16:37:11.772Z,102495.00
2024-04-21T16:42:14.380Z,102498.81
2024-04-21T16:47:20.885Z,102507.44
2024-04-21T16:52:23.338Z,102497.41
2024-04-21T16:57:28.975Z,102496.97
2024-04-21T17:02:32.029Z,102500.06
2024-04-21T17:07:39.938Z,102497.09
2024-04-21T17:12:42.030Z,102492.41
2024-04-21T17:17:44.448Z,102512.75
2024-04-21T17:22:47.439Z,102512.13
2024-04-21T17:27:49.487Z,102507.63
2024-04-21T17:32:52.106Z,102515.31
2024-04-21T17:37:54.737Z,102504.66
2024-04-21T17:42:56.973Z,102508.56
2024-04-21T17:47:59.931Z,102514.28
2024-04-21T17:53:02.407Z,102508.88
2024-04-21T17:58:05.616Z,102517.41
2024-04-21T18:03:07.756Z,102511.53
2024-04-21T18:08:09.830Z,102520.03
2024-04-21T18:13:15.044Z,102527.13
2024-04-21T18:18:17.266Z,102537.09
2024-04-21T18:23:19.335Z,102543.88
2024-04-21T18:28:21.425Z,102550.03
2024-04-21T18:33:23.639Z,102547.06
2024-04-21T18:38:25.719Z,102558.81
2024-04-21T18:43:31.194Z,102557.31
2024-04-21T18:48:33.786Z,102567.66
2024-04-21T18:53:35.809Z,102574.97
2024-04-21T18:58:38.308Z,102581.81
2024-04-21T19:03:40.974Z,102585.75
2024-04-21T19:08:44.075Z,102585.50
2024-04-21T19:13:50.379Z,102599.16
2024-04-21T19:18:56.834Z,102601.34
2024-04-21T19:23:59.627Z,102605.78
2024-04-21T19:29:04.419Z,102613.38
2024-04-21T19:34:08.875Z,102618.69
2024-04-21T19:39:13.677Z,102621.47
2024-04-21T19:44:17.660Z,102622.16
2024-04-21T19:49:19.829Z,102619.81
2024-04-21T19:54:29.638Z,102618.78
2024-04-21T19:59:36.200Z,102613.66
2024-04-21T20:04:38.504Z,102625.31
2024-04-21T20:09:41.315Z,102629.03
2024-04-21T20:15:02.198Z,102625.19
2024-04-21T20:20:05.368Z,102622.31
2024-04-21T20:25:07.932Z,102637.34
2024-04-21T20:30:10.599Z,102644.44
2024-04-21T20:35:19.583Z,102651.94
2024-04-21T20:40:25.475Z,102647.59
2024-04-21T20:45:27.980Z,102651.22
2024-04-21T20:50:35.188Z,102648.09
2024-04-21T20:55:40.483Z,102658.53
2024-04-21T21:00:55.397Z,102658.00
2024-04-21T21:05:58.076Z,102666.22
2024-04-21T21:11:03.241Z,102670.59
2024-04-21T21:16:10.368Z,102669.91
2024-04-21T21:21:12.744Z,102667.50
2024-04-21T21:26:19.283Z,102672.47
2024-04-21T21:31:22.833Z,102680.41
2024-04-21T21:36:26.277Z,102667.38
2024-04-21T21:41:29.579Z,102669.19
2024-04-21T21:46:38.705Z,102666.53
2024-04-21T21:51:41.545Z,102665.72
2024-04-21T21:56:44.416Z,102665.00
2024-04-21T22:01:47.830Z,102666.88
2024-04-21T22:06:54.827Z,102672.13
2024-04-21T22:11:57.884Z,102676.81
2024-04-21T22:17:00.156Z,102672.56
2024-04-21T22:22:02.419Z,102667.41
2024-04-21T22:27:05.403Z,102672.88
2024-04-21T22:32:10.293Z,102674.53
2024-04-21T22:37:15.174Z,102679.75
2024-04-21T22:42:17.990Z,102685.91
2024-04-21T22:47:25.578Z,102682.50
2024-04-21T22:52:27.659Z,102671.19
2024-04-21T22:57:29.667Z,102672.88
2024-04-21T23:02:31.803Z,102668.53
2024-04-21T23:07:33.979Z,102676.41
2024-04-21T23:12:36.091Z,102669.50
2024-04-21T23:17:38.085Z,102664.31
2024-04-21T23:22:40.074Z,102665.19
2024-04-21T23:27:42.083Z,102658.22
2024-04-21T23:32:44.193Z,102660.94
2024-04-21T23:37:46.257Z,102655.78
2024-04-21T23:42:48.553Z,102659.41
2024-04-21T23:47:50.870Z,102649.13
2024-04-21T23:52:53.023Z,102645.59
2024-04-21T23:57:55.022Z,102640.59
